Time;durP1;ratioP1;P1;durP2;ratioP2;P2;SDS_P1;SDS_P2;PMS_P1;PMS_P2;Temp;Humidity;BMP_temperature;BMP_pressure;BME280_temperature;BME280_humidity;BME280_pressure;Samples;Min_cycle;Max_cycle;Signal;HPM_P1;HPM_P2
2021/10/17 00:00:58;;;;;;;20.90;9.30;;;;;;;7.52;75.33;100919.39;88686;1278;94469;-63
2021/10/17 00:03:06;;;;;;;17.60;8.80;;;;;;;7.50;75.38;100922.17;88617;1278;81846;-62
2021/10/17 00:05:15;;;;;;;20.00;8.60;;;;;;;7.49;75.33;100921.70;88669;1278;80630;-66
2021/10/17 00:07:22;;;;;;;18.30;8.60;;;;;;;7.48;75.37;100921.33;88622;1278;97882;-64
2021/10/17 00:09:30;;;;;;;19.10;9.50;;;;;;;7.48;75.48;100916.46;88440;1279;88587;-63
2021/10/17 00:11:37;;;;;;;19.70;9.70;;;;;;;7.50;75.45;100918.42;88652;1278;93094;-63
2021/10/17 00:13:45;;;;;;;17.40;8.80;;;;;;;7.50;75.31;100916.73;88642;1278;80296;-62
2021/10/17 00:15:56;;;;;;;14.90;8.50;;;;;;;7.50;75.44;100918.55;88613;1278;81679;-65
2021/10/17 00:18:06;;;;;;;16.70;8.50;;;;;;;7.49;75.31;100916.88;88588;1278;97792;-65
2021/10/17 00:20:16;;;;;;;18.20;8.70;;;;;;;7.47;75.60;100918.34;88660;1276;87122;-61
2021/10/17 00:22:24;;;;;;;16.00;8.30;;;;;;;7.46;75.64;100912.88;88740;1277;93234;-61
2021/10/17 00:24:32;;;;;;;19.60;9.30;;;;;;;7.47;75.45;100913.69;88666;1278;77615;-64
2021/10/17 00:26:40;;;;;;;15.80;8.60;;;;;;;7.47;75.52;100910.14;88717;1278;82302;-62
2021/10/17 00:28:47;;;;;;;18.10;8.80;;;;;;;7.48;75.53;100907.69;88629;1278;98968;-62
2021/10/17 00:30:55;;;;;;;16.20;8.10;;;;;;;7.48;75.51;100909.30;88623;1278;87615;-66
2021/10/17 00:33:05;;;;;;;17.50;8.20;;;;;;;7.46;75.47;100910.53;88615;1278;92364;-65
2021/10/17 00:35:15;;;;;;;18.10;9.10;;;;;;;7.44;75.53;100915.57;88678;1278;80888;-61
2021/10/17 00:37:22;;;;;;;17.30;8.40;;;;;;;7.44;75.52;100911.52;88702;1278;82015;-62
2021/10/17 00:39:33;;;;;;;20.80;8.70;;;;;;;7.44;75.47;100913.08;88647;1278;96925;-64
2021/10/17 00:41:41;;;;;;;17.20;8.80;;;;;;;7.42;75.64;100910.67;88624;1278;87742;-62
2021/10/17 00:43:49;;;;;;;19.30;9.10;;;;;;;7.38;75.58;100907.21;88468;1278;94413;-69
2021/10/17 00:45:57;;;;;;;16.30;9.10;;;;;;;7.36;75.66;100909.59;88719;1278;79557;-66
2021/10/17 00:48:05;;;;;;;17.20;8.40;;;;;;;7.35;75.73;100910.65;88652;1278;82516;-69
2021/10/17 00:50:14;;;;;;;17.90;8.30;;;;;;;7.36;75.70;100908.91;88687;1278;96990;-63
2021/10/17 00:52:22;;;;;;;17.40;8.60;;;;;;;7.37;75.72;100909.33;88635;1278;87947;-62
2021/10/17 00:54:32;;;;;;;19.40;9.20;;;;;;;7.39;75.70;100906.48;88653;1278;94708;-64
2021/10/17 00:56:42;;;;;;;16.90;9.00;;;;;;;7.44;75.75;100908.66;88693;1278;80288;-64
2021/10/17 00:58:50;;;;;;;19.30;9.20;;;;;;;7.44;75.87;100904.84;88704;1278;82623;-65
2021/10/17 01:00:57;;;;;;;18.80;9.60;;;;;;;7.44;75.90;100903.98;88628;1278;97350;-62
2021/10/17 01:03:05;;;;;;;19.90;9.30;;;;;;;7.45;75.83;100903.00;88641;1278;88076;-62
2021/10/17 01:05:15;;;;;;;21.00;10.10;;;;;;;7.44;75.78;100898.53;88663;1278;94551;-61
2021/10/17 01:07:23;;;;;;;16.50;9.00;;;;;;;7.45;75.79;100898.23;88740;1278;78794;-61
2021/10/17 01:09:32;;;;;;;20.40;9.50;;;;;;;7.46;75.90;100897.98;88658;1277;83095;-62
2021/10/17 01:11:48;;;;;;;17.80;8.80;;;;;;;7.48;75.83;100900.84;88795;1278;97504;-63
2021/10/17 01:13:55;;;;;;;18.60;9.30;;;;;;;7.47;75.90;100897.71;88685;1276;87980;-63
2021/10/17 01:16:03;;;;;;;21.20;10.10;;;;;;;7.45;76.05;100898.45;88604;1277;93969;-63
2021/10/17 01:18:10;;;;;;;19.30;9.10;;;;;;;7.45;75.94;100890.42;88635;1278;81374;-62
2021/10/17 01:20:18;;;;;;;18.80;9.70;;;;;;;7.47;75.83;100890.58;88598;1278;82407;-63
2021/10/17 01:22:26;;;;;;;20.70;9.80;;;;;;;7.48;75.85;100892.09;88614;1277;98768;-62
2021/10/17 01:24:34;;;;;;;18.90;10.10;;;;;;;7.48;75.93;100886.92;88638;1278;88674;-64
2021/10/17 01:26:42;;;;;;;17.60;9.50;;;;;;;7.49;76.06;100888.95;88723;1278;93266;-63
2021/10/17 01:28:52;;;;;;;19.10;10.10;;;;;;;7.49;75.89;100885.73;88640;1278;77938;-62
2021/10/17 01:31:03;;;;;;;20.50;10.00;;;;;;;7.46;76.01;100890.16;88632;1278;80914;-62
2021/10/17 01:33:10;;;;;;;18.80;9.40;;;;;;;7.41;75.93;100888.70;88605;1278;99178;-62
2021/10/17 01:35:18;;;;;;;21.20;11.10;;;;;;;7.40;76.05;100883.40;88629;1278;87667;-62
2021/10/17 01:37:26;;;;;;;18.90;10.20;;;;;;;7.41;76.09;100880.96;88614;1278;94353;-63
2021/10/17 01:39:34;;;;;;;17.70;10.40;;;;;;;7.42;76.19;100883.23;88722;1278;78126;-61
2021/10/17 01:41:44;;;;;;;20.50;10.10;;;;;;;7.42;76.33;100880.87;88753;1278;81337;-60
2021/10/17 01:44:00;;;;;;;20.10;10.10;;;;;;;7.40;76.36;100878.38;88664;1278;98902;-63
2021/10/17 01:46:11;;;;;;;15.70;9.80;;;;;;;7.41;76.30;100876.73;88603;1278;87712;-65
2021/10/17 01:48:18;;;;;;;21.80;10.70;;;;;;;7.39;76.39;100876.52;88617;1278;95372;-65
2021/10/17 01:50:26;;;;;;;19.10;10.10;;;;;;;7.39;76.42;100877.56;88618;1278;79905;-67
2021/10/17 01:52:34;;;;;;;21.40;10.70;;;;;;;7.42;76.27;100876.96;88667;1278;82553;-64
2021/10/17 01:54:41;;;;;;;19.50;10.80;;;;;;;7.43;76.46;100875.94;88675;1278;97283;-65
2021/10/17 01:56:49;;;;;;;20.40;10.70;;;;;;;7.43;76.33;100873.08;88689;1278;88929;-66
2021/10/17 01:58:56;;;;;;;15.90;9.30;;;;;;;7.44;76.52;100872.94;88596;1278;93121;-65
2021/10/17 02:01:04;;;;;;;20.80;10.60;;;;;;;7.44;76.41;100868.86;88661;1278;80814;-66
2021/10/17 02:03:11;;;;;;;22.40;10.50;;;;;;;7.46;76.36;100869.00;88647;1278;82719;-66
2021/10/17 02:05:19;;;;;;;21.00;10.00;;;;;;;7.44;76.52;100865.19;88619;1278;96842;-65
2021/10/17 02:07:27;;;;;;;18.70;10.20;;;;;;;7.43;76.44;100867.73;88676;1278;88608;-64
2021/10/17 02:09:34;;;;;;;18.10;11.10;;;;;;;7.42;76.63;100864.51;88738;1278;94273;-63
2021/10/17 02:11:42;;;;;;;21.40;10.70;;;;;;;7.42;76.60;100860.60;88715;1278;80110;-61
2021/10/17 02:13:49;;;;;;;23.70;11.20;;;;;;;7.41;76.67;100863.35;88752;1278;81461;-63
2021/10/17 02:15:56;;;;;;;22.10;11.10;;;;;;;7.41;76.61;100860.52;88735;1278;98356;-62
2021/10/17 02:18:04;;;;;;;22.20;10.60;;;;;;;7.43;76.61;100866.40;88737;1278;86513;-62
2021/10/17 02:20:14;;;;;;;20.90;11.10;;;;;;;7.44;76.78;100869.04;88682;1278;94379;-62
2021/10/17 02:22:21;;;;;;;20.40;11.00;;;;;;;7.47;76.74;100869.04;88643;1278;78748;-62
2021/10/17 02:24:31;;;;;;;23.50;11.80;;;;;;;7.49;76.74;100868.32;88646;1278;81916;-63
2021/10/17 02:26:39;;;;;;;20.70;11.30;;;;;;;7.49;76.81;100869.02;88602;1278;98256;-62
2021/10/17 02:28:46;;;;;;;22.30;10.90;;;;;;;7.50;76.83;100867.84;88602;1278;88642;-62
2021/10/17 02:30:54;;;;;;;21.30;11.50;;;;;;;7.49;76.75;100865.09;88729;1278;93786;-65
2021/10/17 02:33:01;;;;;;;25.00;11.50;;;;;;;7.47;76.76;100862.77;88412;1282;81086;-65
2021/10/17 02:35:12;;;;;;;20.20;10.60;;;;;;;7.44;76.96;100858.48;88681;1278;81128;-65
2021/10/17 02:37:19;;;;;;;22.80;11.10;;;;;;;7.42;76.95;100858.66;88745;1278;97469;-65
2021/10/17 02:39:27;;;;;;;19.40;11.10;;;;;;;7.43;76.98;100862.70;88628;1278;87060;-64
2021/10/17 02:41:35;;;;;;;21.50;11.50;;;;;;;7.40;77.06;100862.98;88557;1280;94612;-66
2021/10/17 02:43:45;;;;;;;24.60;11.20;;;;;;;7.36;77.12;100859.59;88633;1278;79941;-65
2021/10/17 02:45:52;;;;;;;26.40;12.60;;;;;;;7.35;77.27;100858.84;88627;1278;82142;-66
2021/10/17 02:48:00;;;;;;;20.60;11.60;;;;;;;7.34;77.12;100858.93;88737;1278;97031;-65
2021/10/17 02:50:09;;;;;;;20.40;11.20;;;;;;;7.34;77.13;100858.60;88695;1278;87656;-65
2021/10/17 02:52:16;;;;;;;18.60;11.30;;;;;;;7.33;77.14;100861.23;88631;1278;93612;-66
2021/10/17 02:54:25;;;;;;;21.20;11.50;;;;;;;7.34;77.26;100858.90;88633;1278;79540;-66
2021/10/17 02:56:32;;;;;;;27.00;11.90;;;;;;;7.34;77.30;100860.41;88646;1278;82040;-62
2021/10/17 02:58:39;;;;;;;24.90;12.20;;;;;;;7.31;77.33;100859.11;88644;1278;98952;-61
2021/10/17 03:00:47;;;;;;;26.40;12.30;;;;;;;7.29;77.50;100858.05;88765;1274;86744;-66
2021/10/17 03:02:54;;;;;;;20.00;11.90;;;;;;;7.27;77.57;100857.89;88643;1278;93861;-64
2021/10/17 03:05:04;;;;;;;20.50;11.40;;;;;;;7.29;77.59;100856.59;88694;1278;77623;-62
2021/10/17 03:07:14;;;;;;;23.80;11.90;;;;;;;7.30;77.61;100859.20;88727;1277;82983;-61
2021/10/17 03:09:21;;;;;;;22.40;12.80;;;;;;;7.30;77.67;100864.36;88595;1278;98583;-61
2021/10/17 03:11:29;;;;;;;22.40;11.70;;;;;;;7.32;77.65;100862.95;88599;1279;86969;-64
2021/10/17 03:13:37;;;;;;;23.50;11.10;;;;;;;7.32;77.70;100866.71;88617;1278;95149;-66
2021/10/17 03:15:44;;;;;;;21.90;12.00;;;;;;;7.31;77.82;100866.58;88602;1278;80559;-62
2021/10/17 03:17:54;;;;;;;21.70;11.50;;;;;;;7.32;77.74;100864.14;88645;1278;79881;-63
2021/10/17 03:20:01;;;;;;;24.20;13.10;;;;;;;7.35;77.70;100864.83;88634;1278;98368;-60
2021/10/17 03:22:09;;;;;;;21.30;12.00;;;;;;;7.37;77.75;100862.91;88706;1277;88570;-62
2021/10/17 03:24:17;;;;;;;23.20;12.50;;;;;;;7.41;77.87;100861.30;88661;1278;91781;-62
2021/10/17 03:26:24;;;;;;;22.40;11.70;;;;;;;7.42;77.81;100857.95;88711;1278;81029;-61
2021/10/17 03:28:31;;;;;;;25.40;12.30;;;;;;;7.41;77.82;100857.74;88626;1278;81818;-62
2021/10/17 03:30:41;;;;;;;22.60;12.20;;;;;;;7.41;77.82;100857.69;88720;1278;98276;-65
2021/10/17 03:32:49;;;;;;;22.50;12.90;;;;;;;7.43;77.81;100859.98;88637;1278;89692;-64
2021/10/17 03:34:56;;;;;;;23.20;12.80;;;;;;;7.46;77.82;100857.52;88660;1278;94408;-63
2021/10/17 03:37:04;;;;;;;26.80;13.30;;;;;;;7.45;77.92;100854.60;88700;1278;80447;-63
2021/10/17 03:39:11;;;;;;;24.50;12.50;;;;;;;7.43;77.76;100857.66;88652;1278;82111;-61
2021/10/17 03:41:21;;;;;;;22.50;12.40;;;;;;;7.40;77.99;100858.50;88699;1278;96961;-62
2021/10/17 03:43:29;;;;;;;23.90;12.50;;;;;;;7.38;77.96;100856.56;88633;1276;87575;-62
2021/10/17 03:45:36;;;;;;;23.10;12.50;;;;;;;7.37;77.90;100854.66;88702;1278;94270;-65
2021/10/17 03:47:43;;;;;;;22.10;11.60;;;;;;;7.38;78.10;100856.02;88728;1278;79678;-66
2021/10/17 03:49:51;;;;;;;20.50;12.00;;;;;;;7.38;78.07;100856.41;88683;1278;81770;-65
2021/10/17 03:51:58;;;;;;;23.10;12.60;;;;;;;7.41;77.98;100858.63;88680;1278;98976;-66
2021/10/17 03:54:09;;;;;;;24.50;12.50;;;;;;;7.41;78.14;100856.59;88638;1278;86885;-65
2021/10/17 03:56:17;;;;;;;19.70;11.40;;;;;;;7.44;78.11;100858.61;88739;1278;94031;-66
2021/10/17 03:58:27;;;;;;;21.90;12.80;;;;;;;7.47;78.11;100856.02;88752;1278;81710;-66
2021/10/17 04:00:34;;;;;;;24.20;12.40;;;;;;;7.47;78.09;100860.60;88680;1278;80432;-67
2021/10/17 04:02:42;;;;;;;23.70;12.90;;;;;;;7.48;78.16;100856.82;88660;1277;97938;-66
2021/10/17 04:04:49;;;;;;;22.20;12.30;;;;;;;7.48;78.02;100854.73;88704;1278;87814;-63
2021/10/17 04:06:57;;;;;;;19.50;11.70;;;;;;;7.49;78.07;100854.64;88742;1278;95001;-62
2021/10/17 04:09:05;;;;;;;20.60;12.70;;;;;;;7.51;78.13;100850.73;88612;1278;80759;-63
2021/10/17 04:11:12;;;;;;;27.40;13.50;;;;;;;7.52;78.03;100851.54;88754;1277;81218;-66
2021/10/17 04:13:20;;;;;;;22.20;12.20;;;;;;;7.51;78.07;100853.08;88677;1278;98604;-66
2021/10/17 04:15:27;;;;;;;19.10;11.60;;;;;;;7.52;78.07;100846.30;88715;1278;88273;-66
2021/10/17 04:17:34;;;;;;;22.30;11.90;;;;;;;7.50;78.12;100850.59;88699;1278;94232;-67
2021/10/17 04:19:42;;;;;;;22.20;12.20;;;;;;;7.48;78.10;100845.43;88617;1278;78607;-62
2021/10/17 04:21:49;;;;;;;22.60;12.60;;;;;;;7.49;78.05;100842.85;88643;1278;81735;-62
2021/10/17 04:23:57;;;;;;;23.00;11.70;;;;;;;7.48;78.11;100848.86;88640;1278;97920;-62
2021/10/17 04:26:04;;;;;;;21.40;11.50;;;;;;;7.46;78.13;100843.70;88784;1278;87138;-62
2021/10/17 04:28:11;;;;;;;18.80;11.10;;;;;;;7.43;78.15;100845.63;88673;1278;92751;-62
2021/10/17 04:30:19;;;;;;;21.90;11.60;;;;;;;7.46;78.20;100845.63;88639;1278;78769;-60
2021/10/17 04:32:27;;;;;;;20.90;10.90;;;;;;;7.50;78.17;100845.46;88656;1278;80305;-62
2021/10/17 04:34:35;;;;;;;18.70;10.90;;;;;;;7.51;78.12;100842.27;88646;1278;98590;-62
2021/10/17 04:36:43;;;;;;;18.80;11.10;;;;;;;7.52;78.20;100842.61;88778;1278;87078;-62
2021/10/17 04:38:51;;;;;;;20.90;11.00;;;;;;;7.52;78.17;100844.85;88650;1278;94931;-61
2021/10/17 04:40:59;;;;;;;21.70;10.70;;;;;;;7.54;78.07;100839.67;88708;1278;79707;-63
2021/10/17 04:43:07;;;;;;;19.80;10.60;;;;;;;7.55;78.05;100846.55;88624;1278;81689;-61
2021/10/17 04:45:15;;;;;;;18.30;11.20;;;;;;;7.57;77.98;100845.45;88695;1278;97730;-61
2021/10/17 04:47:22;;;;;;;20.10;10.00;;;;;;;7.59;78.07;100850.35;88801;1278;88168;-61
2021/10/17 04:49:32;;;;;;;24.00;11.00;;;;;;;7.60;78.08;100848.14;88658;1278;94067;-64
2021/10/17 04:51:42;;;;;;;20.00;10.70;;;;;;;7.59;78.10;100849.83;88642;1277;79737;-64
2021/10/17 04:53:50;;;;;;;16.80;9.90;;;;;;;7.59;77.91;100851.33;88631;1277;80516;-64
2021/10/17 04:56:00;;;;;;;19.30;10.20;;;;;;;7.60;77.92;100852.84;88740;1278;98492;-61
2021/10/17 04:58:07;;;;;;;17.90;10.00;;;;;;;7.58;78.02;100851.38;88614;1277;88091;-63
2021/10/17 05:00:17;;;;;;;20.50;10.00;;;;;;;7.59;77.93;100853.63;88421;1279;94375;-63
2021/10/17 05:02:24;;;;;;;19.90;10.50;;;;;;;7.61;77.97;100849.64;88633;1278;78985;-63
2021/10/17 05:04:32;;;;;;;18.90;9.90;;;;;;;7.64;77.90;100849.39;88636;1278;82143;-64
2021/10/17 05:06:39;;;;;;;21.50;10.10;;;;;;;7.66;77.83;100848.21;88770;1278;98464;-65
2021/10/17 05:08:47;;;;;;;17.60;9.50;;;;;;;7.66;77.83;100848.26;88650;1278;87258;-64
2021/10/17 05:10:57;;;;;;;16.30;9.70;;;;;;;7.66;77.75;100852.55;88620;1279;94798;-65
2021/10/17 05:13:04;;;;;;;22.70;10.30;;;;;;;7.66;77.81;100854.10;88568;1279;80249;-66
2021/10/17 05:15:12;;;;;;;15.30;9.70;;;;;;;7.66;77.66;100856.95;88688;1278;80929;-66
2021/10/17 05:17:20;;;;;;;17.90;9.30;;;;;;;7.66;77.67;100856.83;88686;1278;97727;-66
2021/10/17 05:19:30;;;;;;;19.50;10.20;;;;;;;7.64;77.73;100857.93;88644;1278;86785;-65
2021/10/17 05:21:37;;;;;;;15.90;9.40;;;;;;;7.61;77.81;100858.48;88764;1278;94531;-61
2021/10/17 05:23:45;;;;;;;17.60;9.50;;;;;;;7.59;77.77;100862.05;88748;1278;81415;-62
2021/10/17 05:25:53;;;;;;;19.50;9.20;;;;;;;7.60;77.82;100860.56;88800;1278;80326;-65
2021/10/17 05:28:00;;;;;;;19.50;10.10;;;;;;;7.58;77.86;100862.83;88483;1279;97614;-65
2021/10/17 05:30:10;;;;;;;21.20;9.90;;;;;;;7.61;77.80;100863.08;88715;1278;86984;-62
2021/10/17 05:32:19;;;;;;;17.10;9.30;;;;;;;7.64;77.91;100865.25;88476;1280;93196;-61
2021/10/17 05:34:29;;;;;;;17.80;9.70;;;;;;;7.66;77.79;100864.90;88664;1278;79715;-61
2021/10/17 05:36:37;;;;;;;19.00;9.60;;;;;;;7.67;77.77;100869.61;88724;1278;81790;-60
2021/10/17 05:38:44;;;;;;;20.70;10.10;;;;;;;7.68;77.67;100872.90;88685;1278;96682;-61
2021/10/17 05:40:52;;;;;;;19.40;8.60;;;;;;;7.72;77.69;100874.64;88671;1278;87023;-65
2021/10/17 05:42:59;;;;;;;18.30;9.30;;;;;;;7.73;77.81;100872.60;88626;1278;94716;-64
2021/10/17 05:45:08;;;;;;;15.60;9.00;;;;;;;7.74;77.75;100878.27;88644;1278;78265;-61
2021/10/17 05:47:16;;;;;;;15.40;9.20;;;;;;;7.76;77.65;100875.03;88673;1278;81771;-62
2021/10/17 05:49:24;;;;;;;17.20;9.40;;;;;;;7.80;77.64;100877.81;88693;1278;97203;-62
2021/10/17 05:51:32;;;;;;;15.80;9.20;;;;;;;7.83;77.72;100877.36;88559;1279;89168;-66
2021/10/17 05:53:40;;;;;;;17.40;9.90;;;;;;;7.85;77.60;100880.93;88621;1278;92678;-64
2021/10/17 05:55:48;;;;;;;20.30;9.10;;;;;;;7.86;77.52;100878.65;88722;1278;81604;-62
2021/10/17 05:57:56;;;;;;;14.00;8.00;;;;;;;7.86;77.58;100881.48;88784;1278;80850;-62
2021/10/17 06:00:06;;;;;;;17.90;8.70;;;;;;;7.89;77.60;100878.50;88770;1278;97695;-66
2021/10/17 06:02:14;;;;;;;14.30;9.00;;;;;;;7.91;77.63;100876.76;88575;1278;85983;-65
2021/10/17 06:04:21;;;;;;;13.60;8.10;;;;;;;7.94;77.47;100883.17;88622;1278;94715;-66
2021/10/17 06:06:29;;;;;;;17.90;9.40;;;;;;;7.97;77.49;100880.48;88628;1278;78370;-66
2021/10/17 06:08:38;;;;;;;17.50;8.20;;;;;;;7.99;77.48;100881.20;88644;1278;81842;-66
2021/10/17 06:10:46;;;;;;;16.60;7.80;;;;;;;8.00;77.51;100879.45;88422;1280;99207;-64
2021/10/17 06:12:54;;;;;;;15.90;9.30;;;;;;;8.02;77.40;100877.39;88595;1279;88294;-64
2021/10/17 06:15:01;;;;;;;18.10;9.10;;;;;;;8.07;77.38;100877.95;88659;1278;94734;-63
2021/10/17 06:17:09;;;;;;;14.60;8.70;;;;;;;8.11;77.33;100876.48;88578;1279;78815;-62
2021/10/17 06:19:16;;;;;;;19.90;8.80;;;;;;;8.14;77.13;100880.52;88669;1278;82165;-61
2021/10/17 06:21:23;;;;;;;16.00;8.10;;;;;;;8.13;77.22;100883.09;88746;1278;96015;-65
2021/10/17 06:23:31;;;;;;;15.30;8.50;;;;;;;8.13;77.29;100880.23;88623;1278;88976;-66
2021/10/17 06:25:38;;;;;;;18.80;8.80;;;;;;;8.14;77.19;100887.43;88654;1278;93228;-64
2021/10/17 06:27:46;;;;;;;14.80;8.70;;;;;;;8.19;77.16;100885.80;88635;1278;78699;-67
2021/10/17 06:29:56;;;;;;;15.00;8.40;;;;;;;8.20;77.29;100882.48;88700;1278;80940;-63
2021/10/17 06:32:04;;;;;;;19.60;9.00;;;;;;;8.24;77.13;100881.36;88762;1278;97463;-63
2021/10/17 06:34:12;;;;;;;17.80;8.40;;;;;;;8.29;77.02;100878.37;88585;1278;246583;-61
2021/10/17 06:36:19;;;;;;;17.30;9.00;;;;;;;8.30;77.04;100876.59;88635;1278;95693;-62
2021/10/17 06:38:26;;;;;;;16.80;7.80;;;;;;;8.32;77.04;100878.19;88585;1280;80942;-62
2021/10/17 06:40:34;;;;;;;13.60;8.30;;;;;;;8.37;76.93;100879.98;88731;1278;81372;-65
2021/10/17 06:42:42;;;;;;;17.60;8.80;;;;;;;8.41;76.82;100881.91;88628;1278;98521;-65
2021/10/17 06:44:49;;;;;;;15.60;8.40;;;;;;;8.42;76.80;100877.45;88691;1278;87659;-63
2021/10/17 06:46:57;;;;;;;17.90;8.80;;;;;;;8.46;76.82;100883.11;88710;1278;95058;-62
2021/10/17 06:49:04;;;;;;;18.20;8.50;;;;;;;8.51;76.63;100886.48;88643;1278;77045;-63
2021/10/17 06:51:12;;;;;;;15.70;8.30;;;;;;;8.53;76.39;100881.67;88618;1278;81008;-62
2021/10/17 06:53:19;;;;;;;14.80;7.80;;;;;;;8.55;76.41;100887.58;88625;1278;99244;-63
2021/10/17 06:55:27;;;;;;;18.30;8.40;;;;;;;8.57;76.38;100886.58;88638;1278;87543;-63
2021/10/17 06:57:34;;;;;;;16.00;8.40;;;;;;;8.61;76.37;100887.05;88693;1278;95134;-62
2021/10/17 06:59:41;;;;;;;18.80;7.70;;;;;;;8.64;76.26;100888.50;88779;1277;78321;-62
2021/10/17 07:01:49;;;;;;;15.90;8.70;;;;;;;8.69;76.28;100893.16;88730;1278;80895;-66
2021/10/17 07:03:56;;;;;;;16.00;8.10;;;;;;;8.74;76.12;100889.02;88456;1280;97157;-65
2021/10/17 07:06:06;;;;;;;16.70;9.00;;;;;;;8.76;76.13;100895.63;88665;1278;88798;-64
2021/10/17 07:08:14;;;;;;;15.30;7.60;;;;;;;8.78;75.90;100889.65;88644;1278;95139;-63
2021/10/17 07:10:21;;;;;;;16.20;8.90;;;;;;;8.80;75.93;100890.33;88647;1278;81233;-67
2021/10/17 07:12:29;;;;;;;14.30;7.60;;;;;;;8.82;75.84;100895.55;88768;1278;80532;-67
2021/10/17 07:14:36;;;;;;;16.80;8.60;;;;;;;8.85;75.82;100894.98;88736;1278;98119;-66
2021/10/17 07:16:44;;;;;;;16.50;8.50;;;;;;;8.87;75.88;100892.48;88718;1278;87866;-67
2021/10/17 07:18:54;;;;;;;17.20;8.40;;;;;;;8.90;75.88;100895.69;88642;1278;91833;-69
2021/10/17 07:21:02;;;;;;;14.50;8.20;;;;;;;8.94;75.75;100899.81;88738;1277;78280;-62
2021/10/17 07:23:12;;;;;;;16.60;7.60;;;;;;;8.96;75.72;100901.96;88743;1277;80109;-64
2021/10/17 07:25:20;;;;;;;17.70;7.90;;;;;;;8.97;75.69;100902.80;88694;1278;97185;-69
2021/10/17 07:27:27;;;;;;;13.90;8.50;;;;;;;9.02;75.60;100902.17;88677;1278;87196;-68
2021/10/17 07:29:38;;;;;;;18.70;8.90;;;;;;;9.05;75.63;100904.73;88686;1278;93015;-64
2021/10/17 07:31:45;;;;;;;15.10;8.40;;;;;;;9.05;75.65;100904.14;88762;1278;79250;-62
2021/10/17 07:33:53;;;;;;;14.60;8.80;;;;;;;9.06;75.57;100904.47;88650;1278;82063;-62
2021/10/17 07:36:00;;;;;;;16.50;8.90;;;;;;;9.07;75.59;100908.64;88630;1278;98080;-62
2021/10/17 07:38:08;;;;;;;15.70;8.40;;;;;;;9.08;75.56;100908.35;88636;1278;88083;-64
2021/10/17 07:40:16;;;;;;;16.70;9.20;;;;;;;9.08;75.51;100908.88;88616;1278;93426;-62
2021/10/17 07:42:23;;;;;;;13.40;7.70;;;;;;;9.12;75.57;100910.40;88643;1278;79667;-62
2021/10/17 07:44:32;;;;;;;18.10;8.70;;;;;;;9.13;75.55;100910.48;88661;1278;79344;-64
2021/10/17 07:46:39;;;;;;;13.90;8.00;;;;;;;9.18;75.53;100903.12;88691;1278;97443;-62
2021/10/17 07:48:46;;;;;;;16.10;8.50;;;;;;;9.20;75.47;100904.60;88753;1278;88575;-62
2021/10/17 07:50:54;;;;;;;16.30;8.40;;;;;;;9.25;75.34;100902.32;88755;1278;94570;-66
2021/10/17 07:53:01;;;;;;;13.90;8.20;;;;;;;9.26;75.36;100905.38;88619;1278;80320;-67
2021/10/17 07:55:10;;;;;;;14.00;9.00;;;;;;;9.28;75.39;100909.40;88647;1277;82939;-62
2021/10/17 07:57:18;;;;;;;21.70;12.20;;;;;;;9.31;75.30;100911.55;88647;1278;98166;-62
2021/10/17 07:59:25;;;;;;;15.00;8.80;;;;;;;9.36;75.40;100912.52;88672;1278;88033;-61
2021/10/17 08:01:33;;;;;;;13.90;8.40;;;;;;;9.39;75.33;100907.91;88665;1278;94910;-63
2021/10/17 08:03:43;;;;;;;18.10;8.40;;;;;;;9.43;75.22;100907.33;88640;1278;80850;-62
2021/10/17 08:05:51;;;;;;;14.50;8.00;;;;;;;9.44;75.22;100912.93;88755;1278;82449;-66
2021/10/17 08:08:01;;;;;;;14.30;8.00;;;;;;;9.45;75.21;100911.74;88636;1278;97768;-67
2021/10/17 08:10:11;;;;;;;15.50;7.80;;;;;;;9.48;75.12;100916.23;88607;1278;87278;-63
2021/10/17 08:12:18;;;;;;;14.40;7.90;;;;;;;9.51;74.97;100915.71;88629;1278;95963;-63
2021/10/17 08:14:28;;;;;;;14.90;7.80;;;;;;;9.53;75.02;100916.84;88625;1278;80146;-61
2021/10/17 08:16:38;;;;;;;13.20;8.30;;;;;;;9.53;75.01;100918.83;88676;1278;79957;-67
2021/10/17 08:18:46;;;;;;;15.40;9.20;;;;;;;9.51;74.95;100919.33;88624;1278;98684;-66
2021/10/17 08:20:56;;;;;;;16.30;8.60;;;;;;;9.49;74.89;100921.39;88735;1278;86661;-71
2021/10/17 08:23:04;;;;;;;14.90;8.30;;;;;;;9.52;74.86;100920.89;88619;1278;94635;-67
2021/10/17 08:25:12;;;;;;;14.20;8.70;;;;;;;9.52;74.87;100919.63;88663;1278;79979;-68
2021/10/17 08:27:20;;;;;;;14.50;8.70;;;;;;;9.52;74.84;100920.30;88733;1278;81496;-66
2021/10/17 08:29:30;;;;;;;14.80;8.00;;;;;;;9.55;74.79;100921.42;88660;1277;96882;-66
2021/10/17 08:31:40;;;;;;;13.70;8.40;;;;;;;9.57;74.67;100915.58;88528;1281;88269;-66
2021/10/17 08:33:51;;;;;;;14.60;9.00;;;;;;;9.57;74.72;100911.64;88727;1278;93346;-66
2021/10/17 08:35:58;;;;;;;14.80;8.50;;;;;;;9.60;74.67;100912.24;88711;1278;79185;-66
2021/10/17 08:38:06;;;;;;;14.60;8.00;;;;;;;9.59;74.70;100910.91;88692;1278;80877;-66
2021/10/17 08:40:15;;;;;;;15.60;7.90;;;;;;;9.60;74.56;100911.20;88700;1278;99278;-62
2021/10/17 08:42:23;;;;;;;14.10;7.50;;;;;;;9.64;74.55;100917.66;88766;1278;86872;-63
2021/10/17 08:44:33;;;;;;;15.00;7.80;;;;;;;9.66;74.59;100916.20;88638;1278;94822;-63
2021/10/17 08:46:43;;;;;;;14.60;8.50;;;;;;;9.67;74.57;100917.69;88745;1277;79213;-65
2021/10/17 08:48:57;;;;;;;15.60;8.10;;;;;;;9.69;74.59;100920.35;88682;1278;83034;-66
2021/10/17 08:51:05;;;;;;;15.80;8.80;;;;;;;9.70;74.42;100922.79;88659;1278;97532;-65
2021/10/17 08:53:13;;;;;;;16.10;8.90;;;;;;;9.67;74.40;100923.11;88766;1278;87506;-64
2021/10/17 08:55:20;;;;;;;15.70;8.40;;;;;;;9.67;74.36;100925.48;88717;1278;94015;-70
2021/10/17 08:57:31;;;;;;;15.10;8.50;;;;;;;9.68;74.34;100927.50;88754;1278;80457;-66
2021/10/17 08:59:44;;;;;;;18.20;9.20;;;;;;;9.69;74.31;100928.66;88565;1280;80340;-66
2021/10/17 09:01:52;;;;;;;16.20;8.40;;;;;;;9.71;74.51;100927.94;88658;1278;97764;-66
2021/10/17 09:04:02;;;;;;;19.30;9.20;;;;;;;9.73;74.44;100926.71;88680;1278;87002;-69
2021/10/17 09:06:22;;;;;;;14.60;8.60;;;;;;;9.77;74.47;100926.72;88700;1278;93748;-65
2021/10/17 09:08:31;;;;;;;16.90;8.60;;;;;;;9.79;74.43;100922.30;88657;1278;80859;-66
2021/10/17 09:10:39;;;;;;;14.10;8.30;;;;;;;9.83;74.41;100922.05;88743;1277;81998;-65
2021/10/17 09:12:49;;;;;;;13.50;8.60;;;;;;;9.89;74.36;100917.21;88723;1276;97775;-66
2021/10/17 09:15:24;;;;;;;15.10;8.40;;;;;;;9.97;74.37;100920.56;88650;1278;86803;-68
2021/10/17 09:17:31;;;;;;;14.40;8.80;;;;;;;10.06;74.39;100927.69;88495;1281;95759;-66
2021/10/17 09:19:42;;;;;;;14.70;8.70;;;;;;;10.15;74.25;100930.54;88639;1278;78760;-66
2021/10/17 09:22:07;;;;;;;16.00;8.30;;;;;;;10.24;74.17;100929.64;88678;1278;80627;-68
2021/10/17 09:24:25;;;;;;;15.20;9.10;;;;;;;10.37;74.11;100930.99;88688;1278;97364;-66
2021/10/17 09:26:37;;;;;;;18.20;9.20;;;;;;;10.49;74.11;100928.21;88709;1278;86976;-65
2021/10/17 09:28:45;;;;;;;14.00;8.70;;;;;;;10.63;74.03;100925.98;88686;1277;95314;-66
2021/10/17 09:31:01;;;;;;;14.80;8.80;;;;;;;10.74;73.82;100926.83;88738;1276;78776;-62
2021/10/17 09:33:18;;;;;;;15.40;8.80;;;;;;;10.87;73.72;100927.36;88485;1279;81370;-62
2021/10/17 09:35:32;;;;;;;14.20;8.80;;;;;;;10.96;73.69;100926.94;88732;1278;98795;-63
2021/10/17 09:37:43;;;;;;;15.30;8.60;;;;;;;11.03;73.41;100918.07;88781;1277;86621;-64
2021/10/17 09:40:03;;;;;;;13.90;8.60;;;;;;;11.07;73.28;100914.66;88765;1278;95801;-66
2021/10/17 09:42:17;;;;;;;15.10;8.20;;;;;;;11.07;72.99;100910.48;88743;1278;79533;-62
2021/10/17 09:44:38;;;;;;;14.80;7.80;;;;;;;11.07;72.68;100909.27;88741;1277;80507;-62
2021/10/17 09:46:59;;;;;;;16.20;8.70;;;;;;;11.10;72.53;100911.73;88652;1278;97940;-62
2021/10/17 09:49:17;;;;;;;18.40;13.30;;;;;;;11.13;72.42;100911.77;88710;1277;88489;-67
2021/10/17 09:51:30;;;;;;;19.60;13.90;;;;;;;11.08;72.18;100907.15;88778;1278;94243;-64
2021/10/17 09:53:50;;;;;;;16.20;11.30;;;;;;;11.02;72.10;100905.78;88759;1278;78741;-61
2021/10/17 09:56:00;;;;;;;13.90;10.20;;;;;;;10.96;71.97;100910.17;88750;1278;83226;-62